createdAt,value
2023-04-16T00:02:14.533Z,81.43
2023-04-16T00:04:41.872Z,81.00
2023-04-16T00:07:09.231Z,80.86
2023-04-16T00:09:36.483Z,80.31
2023-04-16T00:12:03.953Z,81.40
2023-04-16T00:14:31.309Z,81.54
2023-04-16T00:16:58.672Z,80.63
2023-04-16T00:19:25.953Z,81.09
2023-04-16T00:21:53.265Z,81.27
2023-04-16T00:24:20.438Z,80.70
2023-04-16T00:26:47.793Z,81.19
2023-04-16T00:29:15.624Z,81.14
2023-04-16T00:31:42.838Z,80.78
2023-04-16T00:34:10.202Z,81.07
2023-04-16T00:36:37.576Z,81.38
2023-04-16T00:39:05.581Z,81.35
2023-04-16T00:41:32.972Z,81.23
2023-04-16T00:44:00.201Z,81.28
2023-04-16T00:46:27.552Z,81.12
2023-04-16T00:48:54.765Z,80.61
2023-04-16T00:51:22.065Z,80.79
2023-04-16T00:53:49.361Z,80.80
2023-04-16T00:56:17.770Z,81.07
2023-04-16T00:58:45.307Z,80.97
2023-04-16T01:01:14.526Z,80.75
2023-04-16T01:03:46.181Z,80.49
2023-04-16T01:06:13.999Z,80.34
2023-04-16T01:08:41.385Z,80.50
2023-04-16T01:11:08.778Z,80.42
2023-04-16T01:13:39.497Z,79.89
2023-04-16T01:16:08.305Z,80.40
2023-04-16T01:18:35.837Z,80.49
2023-04-16T01:21:04.026Z,81.13
2023-04-16T01:23:31.390Z,80.70
2023-04-16T01:25:58.636Z,80.34
2023-04-16T01:28:25.814Z,80.58
2023-04-16T01:30:53.119Z,80.58
2023-04-16T01:33:34.023Z,80.51
2023-04-16T01:36:01.453Z,80.47
2023-04-16T01:38:28.719Z,80.63
2023-04-16T01:40:57.809Z,80.92
2023-04-16T01:43:25.276Z,80.86
2023-04-16T01:45:54.290Z,80.84
2023-04-16T01:48:21.532Z,81.39
2023-04-16T01:50:48.801Z,81.21
2023-04-16T01:53:15.985Z,81.08
2023-04-16T01:55:43.394Z,81.08
2023-04-16T01:58:11.161Z,81.16
2023-04-16T02:00:38.891Z,81.85
2023-04-16T02:03:06.304Z,81.85
2023-04-16T02:05:33.754Z,81.86
2023-04-16T02:08:01.051Z,81.94
2023-04-16T02:10:28.328Z,81.39
2023-04-16T02:12:55.783Z,81.15
2023-04-16T02:15:25.343Z,81.38
2023-04-16T02:17:56.944Z,81.11
2023-04-16T02:20:25.947Z,81.03
2023-04-16T02:22:58.479Z,81.36
2023-04-16T02:25:27.266Z,81.29
2023-04-16T02:27:56.241Z,80.98
2023-04-16T02:30:38.301Z,80.98
2023-04-16T02:33:07.689Z,80.91
2023-04-16T02:35:36.598Z,81.00
2023-04-16T02:38:04.346Z,81.36
2023-04-16T02:40:32.064Z,81.29
2023-04-16T02:43:00.644Z,80.65
2023-04-16T02:45:28.099Z,81.22
2023-04-16T02:47:55.567Z,81.06
2023-04-16T02:50:22.816Z,80.53
2023-04-16T02:52:51.592Z,80.86
2023-04-16T02:55:19.091Z,80.97
2023-04-16T02:57:46.420Z,80.16
2023-04-16T03:00:13.916Z,80.46
2023-04-16T03:02:42.578Z,80.83
2023-04-16T03:05:10.143Z,81.01
2023-04-16T03:07:39.249Z,80.63
2023-04-16T03:10:07.566Z,81.17
2023-04-16T03:12:35.935Z,80.82
2023-04-16T03:15:03.650Z,81.39
2023-04-16T03:17:30.991Z,81.21
2023-04-16T03:19:58.358Z,81.06
2023-04-16T03:22:25.761Z,81.31
2023-04-16T03:24:52.991Z,81.13
2023-04-16T03:27:20.179Z,81.31
2023-04-16T03:29:47.479Z,81.61
2023-04-16T03:32:14.894Z,82.31
2023-04-16T03:34:42.212Z,82.77
2023-04-16T03:37:12.116Z,83.18
2023-04-16T03:39:39.600Z,83.42
2023-04-16T03:42:06.934Z,83.17
2023-04-16T03:44:35.494Z,83.26
2023-04-16T03:47:02.785Z,83.08
2023-04-16T03:49:30.042Z,83.19
2023-04-16T03:51:58.584Z,83.63
2023-04-16T03:54:26.875Z,83.42
2023-04-16T03:57:06.083Z,83.50
2023-04-16T03:59:33.933Z,83.88
2023-04-16T04:02:01.741Z,83.89
2023-04-16T04:04:29.135Z,83.78
2023-04-16T04:06:57.998Z,83.36
2023-04-16T04:09:26.743Z,82.90
2023-04-16T04:11:54.053Z,83.09
2023-04-16T04:14:21.266Z,83.61
2023-04-16T04:16:48.573Z,83.86
2023-04-16T04:19:15.963Z,84.25
2023-04-16T04:21:43.263Z,84.34
2023-04-16T04:24:10.689Z,84.11
2023-04-16T04:26:37.986Z,84.08
2023-04-16T04:29:05.785Z,84.29
2023-04-16T04:31:33.039Z,84.34
2023-04-16T04:34:00.740Z,84.58
2023-04-16T04:36:28.723Z,84.10
2023-04-16T04:38:56.139Z,83.76
2023-04-16T04:41:23.617Z,83.51
2023-04-16T04:43:51.050Z,83.91
2023-04-16T04:46:18.476Z,84.00
2023-04-16T04:48:46.013Z,83.96
2023-04-16T04:51:13.323Z,83.85
2023-04-16T04:53:42.044Z,83.61
2023-04-16T04:56:12.885Z,83.88
2023-04-16T04:58:41.706Z,84.10
2023-04-16T05:01:08.983Z,84.24
2023-04-16T05:03:36.653Z,84.19
2023-04-16T05:06:04.202Z,84.23
2023-04-16T05:08:31.517Z,84.07
2023-04-16T05:10:58.710Z,83.59
2023-04-16T05:13:26.226Z,83.38
2023-04-16T05:15:53.402Z,83.00
2023-04-16T05:18:20.694Z,83.24
2023-04-16T05:20:47.906Z,83.16
2023-04-16T05:23:15.802Z,83.52
2023-04-16T05:25:43.013Z,83.94
2023-04-16T05:28:10.576Z,84.28
2023-04-16T05:30:37.946Z,83.98
2023-04-16T05:33:05.213Z,83.64
2023-04-16T05:35:35.239Z,83.81
2023-04-16T05:38:04.411Z,83.99
2023-04-16T05:40:32.039Z,84.03
2023-04-16T05:42:59.276Z,83.46
2023-04-16T05:45:28.043Z,83.13
2023-04-16T05:47:55.660Z,83.36
2023-04-16T05:50:22.916Z,83.27
2023-04-16T05:52:50.169Z,83.95
2023-04-16T05:55:17.345Z,84.23
2023-04-16T05:57:44.786Z,83.66
2023-04-16T06:00:12.248Z,83.70
2023-04-16T06:02:39.830Z,83.80
2023-04-16T06:05:07.399Z,83.54
2023-04-16T06:07:34.813Z,83.52
2023-04-16T06:10:02.046Z,83.75
2023-04-16T06:12:29.352Z,84.02
2023-04-16T06:14:56.593Z,83.99
2023-04-16T06:17:23.915Z,84.39
2023-04-16T06:19:51.142Z,84.14
2023-04-16T06:22:18.503Z,84.00
2023-04-16T06:24:45.687Z,84.14
2023-04-16T06:27:13.008Z,83.94
2023-04-16T06:29:41.881Z,84.13
2023-04-16T06:32:09.470Z,84.18
2023-04-16T06:34:38.001Z,84.06
2023-04-16T06:37:05.255Z,83.89
2023-04-16T06:39:32.400Z,84.26
2023-04-16T06:41:59.680Z,84.21
2023-04-16T06:44:27.297Z,84.00
2023-04-16T06:46:54.618Z,84.32
2023-04-16T06:49:21.933Z,83.52
2023-04-16T06:51:49.252Z,83.11
2023-04-16T06:54:16.926Z,83.93
2023-04-16T06:56:44.169Z,83.58
2023-04-16T06:59:11.581Z,84.04
2023-04-16T07:01:39.083Z,83.83
2023-04-16T07:04:06.520Z,82.40
2023-04-16T07:06:33.845Z,81.95
2023-04-16T07:09:01.124Z,82.29
2023-04-16T07:11:29.903Z,82.11
2023-04-16T07:13:57.833Z,82.59
2023-04-16T07:16:25.204Z,82.49
2023-04-16T07:18:52.435Z,82.98
2023-04-16T07:21:19.996Z,82.88
2023-04-16T07:23:47.296Z,82.35
2023-04-16T07:26:14.591Z,81.91
2023-04-16T07:28:41.809Z,81.55
2023-04-16T07:31:09.451Z,81.09
2023-04-16T07:33:36.663Z,81.05
2023-04-16T07:36:04.032Z,79.81
2023-04-16T07:38:31.252Z,79.48
2023-04-16T07:40:58.638Z,80.00
2023-04-16T07:43:25.806Z,80.09
2023-04-16T07:45:53.149Z,79.61
2023-04-16T07:48:20.330Z,79.97
2023-04-16T07:50:47.672Z,80.14
2023-04-16T07:53:14.941Z,79.77
2023-04-16T07:55:42.258Z,79.17
2023-04-16T07:58:09.701Z,78.58
2023-04-16T08:00:37.303Z,79.63
2023-04-16T08:03:04.779Z,78.63
2023-04-16T08:05:32.150Z,78.30
2023-04-16T08:07:59.374Z,78.12
2023-04-16T08:10:27.578Z,79.06
2023-04-16T08:12:54.907Z,78.34
2023-04-16T08:15:22.135Z,78.46
2023-04-16T08:17:49.364Z,79.31
2023-04-16T08:20:19.083Z,78.80
2023-04-16T08:22:46.775Z,78.94
2023-04-16T08:25:14.526Z,78.92
2023-04-16T08:27:41.908Z,78.40
2023-04-16T08:30:09.225Z,77.04
2023-04-16T08:32:36.460Z,77.52
2023-04-16T08:35:03.804Z,77.00
2023-04-16T08:37:31.051Z,76.78
2023-04-16T08:39:58.293Z,77.33
2023-04-16T08:42:33.199Z,76.04
2023-04-16T08:45:19.742Z,76.83
2023-04-16T08:47:50.905Z,76.70
2023-04-16T08:50:28.414Z,74.51
2023-04-16T08:52:59.893Z,74.37
2023-04-16T08:55:38.564Z,74.81
2023-04-16T08:58:11.874Z,74.97
2023-04-16T09:00:41.052Z,74.74
2023-04-16T09:03:09.058Z,74.49
2023-04-16T09:05:36.497Z,74.12
2023-04-16T09:08:05.012Z,73.56
2023-04-16T09:10:32.462Z,75.60
2023-04-16T09:12:59.735Z,74.33
2023-04-16T09:15:27.376Z,75.14
2023-04-16T09:17:56.528Z,75.55
2023-04-16T09:20:23.890Z,75.52
2023-04-16T09:22:51.179Z,74.86
2023-04-16T09:25:19.144Z,73.71
2023-04-16T09:27:47.684Z,72.81
2023-04-16T09:30:25.654Z,73.21
2023-04-16T09:32:53.797Z,72.57
2023-04-16T09:35:21.183Z,72.70
2023-04-16T09:37:55.481Z,72.97
2023-04-16T09:40:27.433Z,70.85
2023-04-16T09:42:57.557Z,72.70
2023-04-16T09:45:24.985Z,72.48
2023-04-16T09:47:52.283Z,71.68
2023-04-16T09:50:19.966Z,70.09
2023-04-16T09:52:51.413Z,70.57
2023-04-16T09:55:27.551Z,69.08
2023-04-16T09:58:01.477Z,70.02
2023-04-16T10:00:30.403Z,68.15
2023-04-16T10:03:05.821Z,69.63
2023-04-16T10:05:33.262Z,69.85
2023-04-16T10:08:02.148Z,71.22
2023-04-16T10:10:29.772Z,70.19
2023-04-16T10:12:57.945Z,69.40
2023-04-16T10:15:25.447Z,68.71
2023-04-16T10:17:52.723Z,68.80
2023-04-16T10:20:20.099Z,68.66
2023-04-16T10:22:47.362Z,68.70
2023-04-16T10:25:14.780Z,68.70
2023-04-16T10:27:41.977Z,69.37
2023-04-16T10:30:09.784Z,68.34
2023-04-16T10:32:38.155Z,68.55
2023-04-16T10:35:06.346Z,66.08
2023-04-16T10:37:33.792Z,65.83
2023-04-16T10:40:01.406Z,66.43
2023-04-16T10:42:28.733Z,66.34
2023-04-16T10:45:00.113Z,67.64
2023-04-16T10:47:27.640Z,64.36
2023-04-16T10:49:54.919Z,64.52
2023-04-16T10:52:24.709Z,64.62
2023-04-16T10:54:51.917Z,64.71
2023-04-16T10:57:20.089Z,62.73
2023-04-16T10:59:47.834Z,63.84
2023-04-16T11:02:16.569Z,65.80
2023-04-16T11:04:47.568Z,64.75
2023-04-16T11:07:19.760Z,64.68
2023-04-16T11:09:57.565Z,67.77
2023-04-16T11:12:33.657Z,67.10
2023-04-16T11:15:03.216Z,66.40
2023-04-16T11:17:41.631Z,66.97
2023-04-16T11:20:20.877Z,66.94
2023-04-16T11:22:52.565Z,66.63
2023-04-16T11:25:30.063Z,66.61
2023-04-16T11:27:59.207Z,68.55
2023-04-16T11:30:36.504Z,66.47
2023-04-16T11:33:08.657Z,68.01
2023-04-16T11:35:36.008Z,68.08
2023-04-16T11:38:03.296Z,66.97
2023-04-16T11:40:31.624Z,68.39
2023-04-16T11:43:13.017Z,68.81
2023-04-16T11:45:54.067Z,68.68
2023-04-16T11:48:22.084Z,68.87
2023-04-16T11:50:56.545Z,71.06
2023-04-16T11:53:23.996Z,67.93
2023-04-16T11:58:20.130Z,68.52
2023-04-16T12:00:48.353Z,69.33
2023-04-16T12:03:15.850Z,71.19
2023-04-16T12:05:43.236Z,70.73
2023-04-16T12:08:11.706Z,72.22
2023-04-16T12:10:53.610Z,73.60
2023-04-16T12:13:20.949Z,72.40
2023-04-16T12:15:52.754Z,70.63
2023-04-16T12:18:21.462Z,72.20
2023-04-16T12:20:48.748Z,72.05
2023-04-16T12:23:33.049Z,72.09
2023-04-16T12:26:10.437Z,73.38
2023-04-16T12:28:38.681Z,73.56
2023-04-16T12:31:06.345Z,73.53
2023-04-16T12:33:33.795Z,73.99
2023-04-16T12:36:01.877Z,73.39
2023-04-16T12:38:29.986Z,72.25
2023-04-16T12:40:58.412Z,71.72
2023-04-16T12:43:26.334Z,72.46
2023-04-16T12:45:53.816Z,72.68
2023-04-16T12:48:21.159Z,71.07
2023-04-16T12:50:48.514Z,71.27
2023-04-16T12:53:15.839Z,72.02
2023-04-16T12:55:43.086Z,73.39
2023-04-16T12:58:12.475Z,71.95
2023-04-16T13:00:40.501Z,72.38
2023-04-16T13:03:08.007Z,72.42
2023-04-16T13:05:35.475Z,72.03
2023-04-16T13:08:02.668Z,71.31
2023-04-16T13:10:30.118Z,70.51
2023-04-16T13:12:57.431Z,70.10
2023-04-16T13:15:24.729Z,69.65
2023-04-16T13:17:51.970Z,70.70
2023-04-16T13:20:19.377Z,69.39
2023-04-16T13:22:46.648Z,69.42
2023-04-16T13:25:13.882Z,70.28
2023-04-16T13:27:41.127Z,69.29
2023-04-16T13:30:08.715Z,69.35
2023-04-16T13:32:36.182Z,69.80
2023-04-16T13:35:03.607Z,70.51
2023-04-16T13:37:30.990Z,70.52
2023-04-16T13:39:58.296Z,71.11
2023-04-16T13:42:25.572Z,70.82
2023-04-16T13:44:55.049Z,71.37
2023-04-16T13:47:22.343Z,71.24
2023-04-16T13:49:49.655Z,71.73
2023-04-16T13:52:16.907Z,71.12
2023-04-16T13:54:44.175Z,71.98
2023-04-16T13:57:19.937Z,70.89
2023-04-16T13:59:47.325Z,72.79
2023-04-16T14:02:14.568Z,72.43
2023-04-16T14:04:42.106Z,72.60
2023-04-16T14:07:09.316Z,72.38
2023-04-16T14:09:36.617Z,72.45
2023-04-16T14:12:03.976Z,72.88
2023-04-16T14:14:31.281Z,72.30
2023-04-16T14:16:58.986Z,72.41
2023-04-16T14:19:26.283Z,70.96
2023-04-16T14:21:54.376Z,72.44
2023-04-16T14:24:21.696Z,73.13
2023-04-16T14:26:48.874Z,72.95
2023-04-16T14:29:16.144Z,71.91
2023-04-16T14:31:43.344Z,73.20
2023-04-16T14:34:10.929Z,72.89
2023-04-16T14:36:38.135Z,73.10
2023-04-16T14:39:05.324Z,73.34
2023-04-16T14:41:32.584Z,73.10
2023-04-16T14:43:59.896Z,73.40
2023-04-16T14:46:27.199Z,72.08
2023-04-16T14:48:54.655Z,71.90
2023-04-16T14:51:21.866Z,72.81
2023-04-16T14:53:49.159Z,72.66
2023-04-16T14:56:16.386Z,72.72
2023-04-16T14:58:43.665Z,72.06
2023-04-16T15:01:11.062Z,72.92
2023-04-16T15:03:38.514Z,72.28
2023-04-16T15:06:05.951Z,72.97
2023-04-16T15:08:34.109Z,72.86
2023-04-16T15:11:01.296Z,71.43
2023-04-16T15:13:33.812Z,71.91
2023-04-16T15:16:01.585Z,72.15
2023-04-16T15:18:29.308Z,72.20
2023-04-16T15:20:56.875Z,72.62
2023-04-16T15:23:24.150Z,72.05
2023-04-16T15:25:51.474Z,72.38
2023-04-16T15:28:18.773Z,71.56
2023-04-16T15:30:46.167Z,71.63
2023-04-16T15:33:13.767Z,71.56
2023-04-16T15:35:41.495Z,71.56
2023-04-16T15:38:08.686Z,71.84
2023-04-16T15:40:36.506Z,72.38
2023-04-16T15:43:03.730Z,72.56
2023-04-16T15:45:31.927Z,70.83
2023-04-16T15:47:59.214Z,71.13
2023-04-16T15:50:26.646Z,71.58
2023-04-16T15:52:53.828Z,71.93
2023-04-16T15:55:21.209Z,72.75
2023-04-16T15:57:48.414Z,72.56
2023-04-16T16:00:17.269Z,71.67
2023-04-16T16:02:45.243Z,71.45
2023-04-16T16:05:15.975Z,72.58
2023-04-16T16:07:43.505Z,71.79
2023-04-16T16:10:11.676Z,71.74
2023-04-16T16:12:39.736Z,72.24
2023-04-16T16:15:07.670Z,73.63
2023-04-16T16:17:35.095Z,72.61
2023-04-16T16:20:02.462Z,73.97
2023-04-16T16:22:29.925Z,73.90
2023-04-16T16:24:57.952Z,74.21
2023-04-16T16:27:25.551Z,74.35
2023-04-16T16:29:52.756Z,74.87
2023-04-16T16:32:20.161Z,75.11
2023-04-16T16:34:47.397Z,74.52
2023-04-16T16:37:14.709Z,75.11
2023-04-16T16:39:41.942Z,74.16
2023-04-16T16:42:09.268Z,75.42
2023-04-16T16:44:36.860Z,74.76
2023-04-16T16:47:04.224Z,75.23
2023-04-16T16:49:31.528Z,74.63
2023-04-16T16:51:58.856Z,75.02
2023-04-16T16:54:26.165Z,74.96
2023-04-16T16:56:53.459Z,76.62
2023-04-16T16:59:20.876Z,76.72
2023-04-16T17:01:48.266Z,76.32
2023-04-16T17:04:17.182Z,75.56
2023-04-16T17:06:47.086Z,75.81
2023-04-16T17:09:14.476Z,75.56
2023-04-16T17:11:41.853Z,75.79
2023-04-16T17:14:09.099Z,76.65
2023-04-16T17:16:36.654Z,75.79
2023-04-16T17:19:03.912Z,76.37
2023-04-16T17:21:33.114Z,75.23
2023-04-16T17:24:00.587Z,75.27
2023-04-16T17:26:27.995Z,75.29
2023-04-16T17:28:56.814Z,75.57
2023-04-16T17:31:26.890Z,74.98
2023-04-16T17:33:54.609Z,75.40
2023-04-16T17:36:23.171Z,75.89
2023-04-16T17:38:50.727Z,74.46
2023-04-16T17:41:18.054Z,74.59
2023-04-16T17:43:48.657Z,75.17
2023-04-16T17:46:16.496Z,75.18
2023-04-16T17:48:44.190Z,74.28
2023-04-16T17:51:11.892Z,74.54
2023-04-16T17:53:39.321Z,74.57
2023-04-16T17:56:06.868Z,74.25
2023-04-16T17:58:35.377Z,73.65
2023-04-16T18:01:03.394Z,74.54
2023-04-16T18:03:31.791Z,74.21
2023-04-16T18:05:59.400Z,73.74
2023-04-16T18:08:26.857Z,74.14
2023-04-16T18:10:55.452Z,73.66
2023-04-16T18:13:24.056Z,73.19
2023-04-16T18:15:51.808Z,73.70
2023-04-16T18:18:20.638Z,73.39
2023-04-16T18:20:48.092Z,74.81
2023-04-16T18:23:15.360Z,74.40
2023-04-16T18:25:42.723Z,74.07
2023-04-16T18:28:10.007Z,74.09
2023-04-16T18:30:40.402Z,75.19
2023-04-16T18:33:34.336Z,74.40
2023-04-16T18:35:55.302Z,73.93
2023-04-16T18:38:22.510Z,72.88
2023-04-16T18:40:49.902Z,73.17
2023-04-16T18:43:17.128Z,73.22
2023-04-16T18:45:44.605Z,72.69
2023-04-16T18:48:11.902Z,74.10
2023-04-16T18:50:39.316Z,73.28
2023-04-16T18:53:06.619Z,73.80
2023-04-16T18:55:34.024Z,73.67
2023-04-16T18:58:01.317Z,72.92
2023-04-16T19:00:28.756Z,73.50
2023-04-16T19:02:56.173Z,72.48
2023-04-16T19:05:23.657Z,73.70
2023-04-16T19:07:50.951Z,73.98
2023-04-16T19:10:18.287Z,73.04
2023-04-16T19:12:45.509Z,73.96
2023-04-16T19:15:14.759Z,74.02
2023-04-16T19:17:42.143Z,73.13
2023-04-16T19:20:11.474Z,74.16
2023-04-16T19:22:38.894Z,73.83
2023-04-16T19:25:07.280Z,73.74
2023-04-16T19:27:35.011Z,73.11
2023-04-16T19:30:03.118Z,73.75
2023-04-16T19:32:30.858Z,73.68
2023-04-16T19:34:58.227Z,72.94
2023-04-16T19:37:25.523Z,73.01
2023-04-16T19:39:52.805Z,73.64
2023-04-16T19:42:20.074Z,73.83
2023-04-16T19:44:47.451Z,73.42
2023-04-16T19:47:14.655Z,73.45
2023-04-16T19:49:43.641Z,73.13
2023-04-16T19:52:10.888Z,72.86
2023-04-16T19:54:38.246Z,72.75
2023-04-16T19:57:05.513Z,73.60
2023-04-16T19:59:33.179Z,73.55
2023-04-16T20:02:00.871Z,72.15
2023-04-16T20:04:28.281Z,72.91
2023-04-16T20:06:55.900Z,73.39
2023-04-16T20:09:23.616Z,72.71
2023-04-16T20:11:51.576Z,73.22
2023-04-16T20:14:18.955Z,73.32
2023-04-16T20:16:46.219Z,72.61
2023-04-16T20:19:17.168Z,73.04
2023-04-16T20:21:45.678Z,73.06
2023-04-16T20:24:12.898Z,73.17
2023-04-16T20:26:40.252Z,72.68
2023-04-16T20:29:07.514Z,72.87
2023-04-16T20:31:34.916Z,73.19
2023-04-16T20:34:02.228Z,73.34
2023-04-16T20:36:29.536Z,72.96
2023-04-16T20:38:56.768Z,72.92
2023-04-16T20:41:25.254Z,73.75
2023-04-16T20:43:53.111Z,73.54
2023-04-16T20:46:24.369Z,73.09
2023-04-16T20:48:51.920Z,73.64
2023-04-16T20:51:19.144Z,73.95
2023-04-16T20:53:46.507Z,74.31
2023-04-16T20:56:15.090Z,73.86
2023-04-16T20:58:43.106Z,74.15
2023-04-16T21:01:10.403Z,74.34
2023-04-16T21:03:37.890Z,74.24
2023-04-16T21:06:05.385Z,73.60
2023-04-16T21:08:32.753Z,73.74
2023-04-16T21:10:59.995Z,74.63
2023-04-16T21:13:27.238Z,74.66
2023-04-16T21:15:54.520Z,74.74
2023-04-16T21:18:21.977Z,75.14
2023-04-16T21:20:49.221Z,74.77
2023-04-16T21:23:16.460Z,74.47
2023-04-16T21:25:43.656Z,74.50
2023-04-16T21:28:11.045Z,73.88
2023-04-16T21:30:38.583Z,73.84
2023-04-16T21:33:06.649Z,74.50
2023-04-16T21:35:34.195Z,74.46
2023-04-16T21:38:01.525Z,74.63
2023-04-16T21:40:28.848Z,74.05
2023-04-16T21:42:56.169Z,74.39
2023-04-16T21:45:23.365Z,73.96
2023-04-16T21:47:50.727Z,73.47
2023-04-16T21:50:18.125Z,73.44
2023-04-16T21:52:46.342Z,73.92
2023-04-16T21:55:14.379Z,74.15
2023-04-16T21:57:41.762Z,73.97
2023-04-16T22:00:13.849Z,74.24
2023-04-16T22:02:42.308Z,74.23
2023-04-16T22:05:10.783Z,73.86
2023-04-16T22:07:38.504Z,74.74
2023-04-16T22:10:06.807Z,74.03
2023-04-16T22:12:37.825Z,74.75
2023-04-16T22:15:09.146Z,74.33
2023-04-16T22:17:36.562Z,74.95
2023-04-16T22:20:09.388Z,74.73
2023-04-16T22:22:36.947Z,75.15
2023-04-16T22:25:04.487Z,75.09
2023-04-16T22:27:31.712Z,74.51
2023-04-16T22:29:58.969Z,74.66
2023-04-16T22:32:26.518Z,74.38
2023-04-16T22:34:53.954Z,74.90
2023-04-16T22:37:21.161Z,74.64
2023-04-16T22:39:48.372Z,74.19
2023-04-16T22:42:15.776Z,74.43
2023-04-16T22:44:42.962Z,74.65
2023-04-16T22:47:10.179Z,74.45
2023-04-16T22:49:37.453Z,74.50
2023-04-16T22:52:04.792Z,75.13
2023-04-16T22:54:32.246Z,74.24
2023-04-16T22:56:59.799Z,74.43
2023-04-16T22:59:26.972Z,74.60
2023-04-16T23:01:54.455Z,74.31
2023-04-16T23:04:21.737Z,74.87
2023-04-16T23:06:50.457Z,74.39
2023-04-16T23:09:17.738Z,73.66
2023-04-16T23:11:45.056Z,73.79
2023-04-16T23:14:16.189Z,73.59
2023-04-16T23:16:44.044Z,73.56
2023-04-16T23:19:14.864Z,73.72
2023-04-16T23:21:42.251Z,73.23
2023-04-16T23:24:09.471Z,73.15
2023-04-16T23:26:36.880Z,73.76
2023-04-16T23:29:04.044Z,73.06
2023-04-16T23:31:31.378Z,72.86
2023-04-16T23:33:58.635Z,73.28
2023-04-16T23:36:26.987Z,72.86
2023-04-16T23:38:54.214Z,73.53
2023-04-16T23:41:23.330Z,73.07
2023-04-16T23:43:50.729Z,73.03
2023-04-16T23:46:18.001Z,72.85
2023-04-16T23:48:45.245Z,73.44
2023-04-16T23:51:12.598Z,73.44
2023-04-16T23:53:40.900Z,74.12
2023-04-16T23:56:11.112Z,74.31
2023-04-16T23:58:38.590Z,74.21
